Time;durP1;ratioP1;P1;durP2;ratioP2;P2;SDS_P1;SDS_P2;PMS_P1;PMS_P2;Temp;Humidity;BMP_temperature;BMP_pressure;BME280_temperature;BME280_humidity;BME280_pressure;Samples;Min_cycle;Max_cycle;Signal;HPM_P1;HPM_P2
2021/06/15 00:02:25;;;;;;;19.27;16.70;;;;;;;18.62;71.72;101853.25;5249850;28;20548;-67
2021/06/15 00:04:56;;;;;;;25.27;16.48;;;;;;;18.58;71.16;101847.41;5251669;28;20267;-67
2021/06/15 00:07:27;;;;;;;18.15;15.82;;;;;;;18.59;71.95;101857.03;5247686;28;20025;-67
2021/06/15 00:09:59;;;;;;;17.75;15.63;;;;;;;18.48;72.27;101850.16;5249256;28;20067;-68
2021/06/15 00:12:30;;;;;;;22.15;17.05;;;;;;;18.54;71.81;101848.72;5250116;28;20018;-67
2021/06/15 00:15:02;;;;;;;18.97;16.03;;;;;;;18.53;71.87;101851.56;5251585;28;20025;-67
2021/06/15 00:17:34;;;;;;;18.73;15.88;;;;;;;18.38;72.71;101849.47;5248606;28;20021;-68
2021/06/15 00:20:07;;;;;;;20.98;15.20;;;;;;;18.37;72.79;101849.59;5250218;28;20056;-67
2021/06/15 00:22:39;;;;;;;21.63;16.52;;;;;;;18.30;73.68;101851.25;5252670;28;20550;-67
2021/06/15 00:25:12;;;;;;;18.27;15.63;;;;;;;18.37;73.84;101846.97;5247352;28;20108;-67
2021/06/15 00:27:43;;;;;;;18.30;15.70;;;;;;;18.33;72.70;101843.78;5245695;28;20075;-67
2021/06/15 00:30:17;;;;;;;21.70;16.40;;;;;;;18.33;72.74;101842.94;5248390;28;20033;-68
2021/06/15 00:32:50;;;;;;;20.05;15.60;;;;;;;18.26;72.97;101857.81;5249434;28;20060;-67
2021/06/15 00:35:23;;;;;;;19.27;16.50;;;;;;;18.18;73.62;101848.00;5247935;28;20025;-67
2021/06/15 00:37:54;;;;;;;19.42;15.70;;;;;;;18.23;73.78;101843.91;5249865;28;20718;-67
2021/06/15 00:40:26;;;;;;;18.17;16.38;;;;;;;18.18;74.26;101848.00;5255340;28;20032;-68
2021/06/15 00:42:57;;;;;;;22.17;16.30;;;;;;;18.17;73.44;101855.13;5255829;28;20032;-70
2021/06/15 00:45:31;;;;;;;18.45;15.60;;;;;;;18.14;73.81;101852.78;5255888;28;20517;-68
2021/06/15 00:48:03;;;;;;;20.23;15.93;;;;;;;17.95;75.16;101855.63;5255608;28;20371;-68
2021/06/15 00:50:34;;;;;;;18.87;15.77;;;;;;;18.06;74.15;101855.38;5256116;28;20036;-68
2021/06/15 00:53:06;;;;;;;18.67;16.10;;;;;;;17.97;74.69;101854.50;5254803;28;20057;-69
2021/06/15 00:55:37;;;;;;;19.65;16.02;;;;;;;17.91;75.17;101863.03;5255631;28;20468;-68
2021/06/15 00:58:08;;;;;;;20.10;17.30;;;;;;;17.78;75.87;101853.84;5256787;28;20021;-68
2021/06/15 01:00:40;;;;;;;18.73;16.55;;;;;;;17.75;76.45;101865.56;5250935;28;20060;-68
2021/06/15 01:03:12;;;;;;;19.00;16.70;;;;;;;17.76;76.83;101867.22;5255515;28;20478;-68
2021/06/15 01:05:44;;;;;;;21.73;16.77;;;;;;;17.71;77.02;101875.59;5253672;28;20368;-68
2021/06/15 01:08:41;;;;;;;20.33;16.15;;;;;;;17.88;74.83;101871.34;5255828;28;20071;-68
2021/06/15 01:11:34;;;;;;;18.42;16.52;;;;;;;17.70;76.59;101873.94;5255599;28;20031;-68
2021/06/15 01:14:32;;;;;;;19.13;16.88;;;;;;;17.81;75.94;101872.09;5252715;28;20039;-68
2021/06/15 01:17:15;;;;;;;20.42;16.52;;;;;;;17.72;76.12;101871.97;5255185;28;20394;-68
2021/06/15 01:19:55;;;;;;;;;;;;;;;17.97;72.74;101866.91;5255521;28;20482;-68
2021/06/15 01:22:46;;;;;;;22.00;16.83;;;;;;;17.61;76.59;101871.34;5253434;28;20366;-68
2021/06/15 01:25:20;;;;;;;19.75;17.02;;;;;;;17.56;77.19;101882.41;5253587;28;20425;-68
2021/06/15 01:27:57;;;;;;;22.05;16.92;;;;;;;17.59;77.07;101883.94;5254376;28;20593;-69
2021/06/15 01:30:48;;;;;;;22.98;17.85;;;;;;;17.66;75.75;101883.19;5253471;28;20021;-68
2021/06/15 01:33:22;;;;;;;20.92;17.08;;;;;;;17.47;78.16;101880.69;5254105;28;20049;-68
2021/06/15 01:35:57;;;;;;;20.55;17.40;;;;;;;17.50;76.85;101883.00;5253344;28;20471;-68
2021/06/15 01:38:41;;;;;;;20.88;17.58;;;;;;;17.50;76.95;101880.34;5251815;28;20032;-68
2021/06/15 01:41:18;;;;;;;19.05;17.02;;;;;;;17.41;78.12;101883.91;5252569;28;20063;-68
2021/06/15 01:43:54;;;;;;;19.90;17.25;;;;;;;17.56;77.04;101887.72;5253170;28;20040;-68
2021/06/15 01:46:29;;;;;;;22.35;17.23;;;;;;;17.40;77.71;101898.97;5254405;28;20040;-68
2021/06/15 01:49:05;;;;;;;22.15;17.40;;;;;;;17.33;78.44;101903.19;5254786;28;20029;-68
2021/06/15 01:51:39;;;;;;;21.80;17.90;;;;;;;17.16;79.64;101899.53;5254797;28;20134;-68
2021/06/15 01:54:16;;;;;;;21.15;18.05;;;;;;;17.15;79.49;101895.22;5251802;28;20028;-68
2021/06/15 01:56:48;;;;;;;21.08;17.60;;;;;;;17.14;79.89;101904.16;5246858;28;20056;-68
2021/06/15 01:59:23;;;;;;;22.65;17.13;;;;;;;17.17;80.25;101903.84;5254852;28;20072;-68
2021/06/15 02:01:57;;;;;;;22.00;17.13;;;;;;;17.14;79.52;101898.84;5244182;28;20029;-68
2021/06/15 02:04:32;;;;;;;20.50;17.50;;;;;;;17.11;80.70;101903.59;5252614;28;20041;-68
2021/06/15 02:07:06;;;;;;;21.20;17.55;;;;;;;16.99;81.42;101900.31;5251651;28;20464;-68
2021/06/15 02:09:40;;;;;;;21.45;17.15;;;;;;;17.03;80.79;101904.34;5251323;28;20470;-68
2021/06/15 02:12:13;;;;;;;21.90;16.25;;;;;;;17.04;80.99;101908.66;5254937;28;20032;-68
2021/06/15 02:14:45;;;;;;;19.02;16.15;;;;;;;17.06;81.05;101906.69;5253826;28;20029;-68
2021/06/15 02:17:18;;;;;;;19.35;16.45;;;;;;;17.02;81.24;101914.09;5254290;28;20047;-68
2021/06/15 02:19:50;;;;;;;21.48;15.02;;;;;;;16.97;81.59;101931.38;5253140;28;20045;-68
2021/06/15 02:22:23;;;;;;;19.42;15.10;;;;;;;16.99;80.82;101926.78;5254754;28;20360;-68
2021/06/15 02:24:56;;;;;;;18.55;15.30;;;;;;;16.90;81.79;101932.97;5254402;28;20046;-67
2021/06/15 02:27:27;;;;;;;20.55;14.60;;;;;;;16.93;81.48;101930.00;5252513;28;20036;-68
2021/06/15 02:29:59;;;;;;;19.65;14.23;;;;;;;16.85;81.37;101917.50;5254748;28;20021;-67
2021/06/15 02:32:33;;;;;;;17.98;14.13;;;;;;;16.93;80.80;101927.34;5254599;28;20305;-68
2021/06/15 02:35:08;;;;;;;14.95;13.18;;;;;;;16.88;81.48;101926.97;5253850;28;20501;-68
2021/06/15 02:37:45;;;;;;;20.23;14.98;;;;;;;16.88;81.29;101926.97;5251780;28;20032;-69
2021/06/15 02:40:18;;;;;;;18.38;14.75;;;;;;;16.79;81.55;101920.75;5254072;28;20028;-67
2021/06/15 02:42:51;;;;;;;17.45;13.45;;;;;;;16.83;81.41;101924.75;5254449;28;20060;-68
2021/06/15 02:45:29;;;;;;;15.40;13.18;;;;;;;16.70;82.51;101929.50;5251453;28;20087;-69
2021/06/15 02:48:06;;;;;;;15.38;13.18;;;;;;;16.74;82.30;101922.97;5253296;28;20084;-67
2021/06/15 02:50:38;;;;;;;18.33;13.23;;;;;;;16.68;82.19;101926.16;5258342;28;20040;-67
2021/06/15 02:53:21;;;;;;;16.35;12.70;;;;;;;16.83;80.46;101918.63;5255844;28;20029;-67
2021/06/15 02:56:09;;;;;;;14.93;11.70;;;;;;;16.86;80.27;101918.31;5256327;28;20107;-67
2021/06/15 02:58:41;;;;;;;14.40;11.02;;;;;;;16.77;80.50;101918.22;5250731;28;20036;-67
2021/06/15 03:01:13;;;;;;;13.00;11.68;;;;;;;16.71;81.23;101916.13;5249347;28;20048;-67
2021/06/15 03:03:44;;;;;;;14.70;11.02;;;;;;;16.78;81.15;101911.97;5257794;28;20041;-67
2021/06/15 03:06:16;;;;;;;12.50;10.83;;;;;;;16.75;80.72;101908.78;5250870;28;20053;-68
2021/06/15 03:08:47;;;;;;;14.25;11.43;;;;;;;16.73;81.24;101918.63;5250882;28;20653;-67
2021/06/15 03:11:21;;;;;;;12.50;10.90;;;;;;;16.67;81.65;101912.13;5254235;28;20033;-67
2021/06/15 03:14:01;;;;;;;13.07;10.70;;;;;;;16.65;81.81;101914.06;5252856;28;20029;-67
2021/06/15 03:16:34;;;;;;;13.02;10.32;;;;;;;16.70;81.64;101922.38;5249862;28;20082;-68
2021/06/15 03:19:15;;;;;;;13.68;11.00;;;;;;;16.69;81.92;101927.84;5257729;28;20550;-67
2021/06/15 03:21:53;;;;;;;15.45;11.68;;;;;;;16.68;81.62;101924.34;5250876;28;20474;-67
2021/06/15 03:24:27;;;;;;;13.25;10.43;;;;;;;16.76;80.75;101926.31;5246712;28;20029;-67
2021/06/15 03:27:07;;;;;;;14.85;11.05;;;;;;;16.70;81.36;101924.19;5249519;28;20106;-67
2021/06/15 03:29:40;;;;;;;13.68;10.80;;;;;;;16.72;81.11;101925.75;5253386;28;20108;-67
2021/06/15 03:32:15;;;;;;;13.38;10.30;;;;;;;16.77;80.91;101923.50;5248821;28;20116;-67
2021/06/15 03:34:51;;;;;;;12.52;10.52;;;;;;;16.67;81.70;101922.69;5251970;28;20031;-67
2021/06/15 03:37:27;;;;;;;15.18;11.32;;;;;;;16.73;81.43;101937.16;5254233;28;20497;-67
2021/06/15 03:40:00;;;;;;;13.38;10.88;;;;;;;16.69;81.33;101936.59;5253143;28;20029;-67
2021/06/15 03:42:38;;;;;;;12.10;10.40;;;;;;;16.70;81.09;101932.97;5251144;28;20029;-67
2021/06/15 03:45:10;;;;;;;13.25;10.85;;;;;;;16.67;81.44;101950.97;5257498;28;20032;-67
2021/06/15 03:47:45;;;;;;;11.98;10.38;;;;;;;16.80;80.97;101948.03;5252587;28;20031;-68
2021/06/15 03:50:17;;;;;;;13.70;10.18;;;;;;;16.68;81.11;101942.88;5254318;28;20016;-67
2021/06/15 03:52:53;;;;;;;12.27;10.38;;;;;;;16.73;80.53;101945.94;5258811;28;20044;-67
2021/06/15 03:55:29;;;;;;;13.93;10.95;;;;;;;16.66;81.51;101951.94;5252823;28;20098;-67
2021/06/15 03:58:02;;;;;;;13.07;9.80;;;;;;;16.77;80.29;101949.16;5252701;28;20021;-67
2021/06/15 04:00:37;;;;;;;12.35;10.18;;;;;;;16.68;81.43;101955.28;5249473;28;20404;-67
2021/06/15 04:03:10;;;;;;;11.35;10.10;;;;;;;16.81;80.43;101955.00;5248225;28;20479;-65
2021/06/15 04:05:43;;;;;;;17.55;9.90;;;;;;;16.82;81.40;101951.34;5245552;28;20384;-66
2021/06/15 04:08:15;;;;;;;;;;;;;;;17.05;78.58;101955.34;5250699;28;20022;-66
2021/06/15 04:10:51;;;;;;;10.23;8.50;;;;;;;16.87;80.31;101968.50;5250789;28;20362;-67
2021/06/15 04:13:25;;;;;;;14.43;9.73;;;;;;;16.77;80.85;101971.16;5255667;28;20031;-67
2021/06/15 04:15:57;;;;;;;10.88;9.00;;;;;;;16.70;80.94;101951.50;5250588;28;20059;-67
2021/06/15 04:18:31;;;;;;;12.07;9.68;;;;;;;16.78;80.49;101958.75;5246154;28;20028;-66
2021/06/15 04:21:04;;;;;;;13.63;8.73;;;;;;;16.82;80.59;101969.88;5250074;28;20147;-66
2021/06/15 04:23:53;;;;;;;11.90;8.52;;;;;;;16.91;79.85;101966.38;5257076;28;20025;-67
2021/06/15 04:26:25;;;;;;;12.15;8.32;;;;;;;16.89;79.41;101969.16;5248513;28;20043;-67
2021/06/15 04:28:57;;;;;;;10.50;8.27;;;;;;;16.89;79.31;101971.81;5251094;28;20041;-66
2021/06/15 04:31:30;;;;;;;10.18;7.78;;;;;;;16.89;79.13;101963.88;5248221;28;20393;-67
2021/06/15 04:34:03;;;;;;;9.77;7.85;;;;;;;16.91;78.61;101966.38;5250162;28;20059;-67
2021/06/15 04:36:37;;;;;;;15.18;8.43;;;;;;;17.00;78.64;101960.22;5248233;28;20029;-67
2021/06/15 04:39:14;;;;;;;9.88;8.32;;;;;;;16.94;78.95;101966.94;5247823;28;20025;-67
2021/06/15 04:42:03;;;;;;;13.00;7.93;;;;;;;17.01;78.56;101967.19;5252061;28;20029;-67
2021/06/15 04:44:40;;;;;;;16.27;7.88;;;;;;;17.03;78.64;101958.13;5249233;28;20021;-67
2021/06/15 04:47:24;;;;;;;9.50;7.57;;;;;;;17.02;78.01;101968.88;5252561;28;20115;-67
2021/06/15 04:50:00;;;;;;;12.73;7.68;;;;;;;17.08;77.92;101970.91;5249091;28;20029;-67
2021/06/15 04:52:35;;;;;;;11.45;7.75;;;;;;;17.13;77.71;101963.38;5255234;28;20101;-67
2021/06/15 04:55:08;;;;;;;10.98;7.80;;;;;;;17.16;77.35;101962.25;5254220;28;20087;-67
2021/06/15 04:57:42;;;;;;;8.90;6.65;;;;;;;17.19;76.59;101968.06;5249399;28;20017;-67
2021/06/15 05:00:15;;;;;;;9.40;7.53;;;;;;;17.22;76.74;101959.03;5251149;28;20078;-67
2021/06/15 05:02:46;;;;;;;11.38;7.20;;;;;;;17.32;76.32;101962.47;5249912;28;20586;-67
2021/06/15 05:05:20;;;;;;;11.57;6.75;;;;;;;17.37;75.44;101972.63;5251947;28;20487;-67
2021/06/15 05:08:04;;;;;;;9.27;6.93;;;;;;;17.47;75.10;101970.75;5249711;28;20479;-67
2021/06/15 05:10:38;;;;;;;9.88;6.43;;;;;;;17.44;75.20;101974.53;5252252;28;20049;-67
2021/06/15 05:13:11;;;;;;;9.45;7.00;;;;;;;17.39;75.03;101979.44;5244272;28;20303;-67
2021/06/15 05:15:43;;;;;;;10.82;6.90;;;;;;;17.40;74.74;101983.75;5249597;28;20135;-67
2021/06/15 05:18:15;;;;;;;9.07;6.53;;;;;;;17.38;75.12;101992.81;5247676;28;20055;-66
2021/06/15 05:20:46;;;;;;;11.18;7.22;;;;;;;17.40;75.54;102001.47;5247596;28;20087;-67
2021/06/15 05:23:38;;;;;;;10.93;6.68;;;;;;;17.48;75.23;101999.75;5248785;28;20569;-67
2021/06/15 05:26:11;;;;;;;8.65;6.57;;;;;;;17.39;75.32;101998.00;5241765;28;20026;-67
2021/06/15 05:28:43;;;;;;;11.27;6.72;;;;;;;17.44;75.02;102005.50;5248072;28;20546;-67
2021/06/15 05:31:14;;;;;;;11.25;6.70;;;;;;;17.49;74.97;102000.56;5251797;28;20026;-67
2021/06/15 05:33:45;;;;;;;8.40;6.45;;;;;;;17.51;74.63;102014.53;5247018;28;20021;-66
2021/06/15 05:36:17;;;;;;;8.95;6.47;;;;;;;17.49;74.29;102004.06;5248125;28;20021;-67
2021/06/15 05:38:48;;;;;;;8.32;6.95;;;;;;;17.52;74.73;102009.06;5250096;28;20025;-67
2021/06/15 05:41:19;;;;;;;9.63;6.93;;;;;;;17.59;75.20;102011.97;5249919;28;20033;-67
2021/06/15 05:43:51;;;;;;;8.30;6.63;;;;;;;17.60;74.20;102018.09;5249707;28;20418;-67
2021/06/15 05:46:22;;;;;;;9.40;6.90;;;;;;;17.56;74.21;102022.84;5244911;28;20025;-68
2021/06/15 05:48:53;;;;;;;11.45;6.45;;;;;;;17.63;73.93;102010.69;5248519;28;20029;-67
2021/06/15 05:51:25;;;;;;;9.27;6.45;;;;;;;17.62;72.56;102019.63;5251711;28;20025;-66
2021/06/15 05:53:59;;;;;;;8.50;5.82;;;;;;;17.56;72.41;102017.56;5248413;28;20442;-66
2021/06/15 05:56:30;;;;;;;10.38;6.72;;;;;;;17.56;72.37;102016.72;5249338;28;20040;-66
2021/06/15 05:59:01;;;;;;;7.40;5.68;;;;;;;17.57;72.38;102024.50;5251644;28;20480;-66
2021/06/15 06:01:33;;;;;;;8.63;5.35;;;;;;;17.59;72.06;102022.56;5252571;28;20185;-67
2021/06/15 06:04:08;;;;;;;7.93;5.75;;;;;;;17.61;71.41;102014.47;5251916;28;20035;-67
2021/06/15 06:09:29;;;;;;;9.27;5.50;;;;;;;17.86;71.28;102012.97;5250470;28;20063;-67
2021/06/15 06:12:01;;;;;;;8.73;5.30;;;;;;;17.97;70.47;102018.06;5249159;28;20488;-67
2021/06/15 06:14:32;;;;;;;10.10;5.50;;;;;;;18.04;69.41;102021.78;5248022;28;20119;-67
2021/06/15 06:17:07;;;;;;;7.55;5.72;;;;;;;18.18;69.34;102034.53;5248060;28;20036;-67
2021/06/15 06:19:38;;;;;;;10.05;5.07;;;;;;;18.19;68.02;102035.34;5250478;28;20102;-67
2021/06/15 06:22:10;;;;;;;6.00;4.30;;;;;;;18.37;67.90;102022.06;5242305;28;20919;-67
2021/06/15 06:24:41;;;;;;;7.22;4.72;;;;;;;18.45;66.67;102023.00;5243690;28;20457;-67
2021/06/15 06:27:13;;;;;;;7.80;4.75;;;;;;;18.55;66.41;102022.88;5245847;28;20112;-67
2021/06/15 06:29:44;;;;;;;8.63;4.87;;;;;;;18.70;66.08;102032.00;5242971;28;20409;-67
2021/06/15 06:32:15;;;;;;;8.00;5.13;;;;;;;18.74;64.02;102026.38;5238139;28;20060;-68
2021/06/15 06:34:46;;;;;;;13.20;4.88;;;;;;;18.83;64.00;102026.31;5246005;28;20502;-67
2021/06/15 06:37:18;;;;;;;9.03;4.60;;;;;;;18.78;62.23;102035.69;5246526;28;20053;-67
2021/06/15 06:39:49;;;;;;;5.70;4.25;;;;;;;18.75;62.18;102039.50;5246234;28;20029;-67
2021/06/15 06:42:20;;;;;;;10.33;4.83;;;;;;;18.85;61.75;102036.75;5247868;28;20084;-67
2021/06/15 06:44:52;;;;;;;9.93;4.50;;;;;;;18.86;61.88;102047.22;5248497;28;20013;-67
2021/06/15 06:47:23;;;;;;;7.90;4.43;;;;;;;18.87;61.91;102042.75;5248350;28;20067;-67
2021/06/15 06:49:54;;;;;;;7.83;4.50;;;;;;;18.86;61.15;102044.56;5248227;28;20017;-67
2021/06/15 06:52:25;;;;;;;7.20;4.37;;;;;;;18.95;61.61;102046.28;5253353;28;20136;-67
2021/06/15 06:54:57;;;;;;;6.37;3.80;;;;;;;18.88;61.59;102037.28;5246059;28;20048;-67
2021/06/15 06:57:28;;;;;;;5.27;4.20;;;;;;;18.88;62.14;102045.25;5248755;28;20390;-68
2021/06/15 07:00:00;;;;;;;7.00;4.63;;;;;;;18.94;61.48;102046.44;5252536;28;20031;-68
2021/06/15 07:02:31;;;;;;;9.05;4.25;;;;;;;19.00;61.67;102045.81;5248373;28;20032;-68
2021/06/15 07:05:03;;;;;;;7.67;4.00;;;;;;;19.14;61.31;102050.56;5250913;28;20020;-68
2021/06/15 07:07:35;;;;;;;9.68;4.35;;;;;;;19.12;59.10;102051.69;5253627;28;20630;-68
2021/06/15 07:10:06;;;;;;;6.45;3.92;;;;;;;19.14;60.84;102053.22;5252895;28;20028;-68
2021/06/15 07:12:38;;;;;;;7.35;4.00;;;;;;;19.13;60.16;102054.22;5249157;28;20025;-68
2021/06/15 07:15:09;;;;;;;7.23;3.77;;;;;;;19.17;59.59;102060.88;5251722;28;20501;-67
2021/06/15 07:17:41;;;;;;;6.07;3.87;;;;;;;19.20;61.08;102065.03;5250777;28;20613;-68
2021/06/15 07:20:12;;;;;;;5.00;4.10;;;;;;;19.32;60.51;102063.78;5250617;28;20060;-68
2021/06/15 07:22:44;;;;;;;6.60;3.93;;;;;;;19.13;60.62;102056.88;5246193;28;20121;-68
2021/06/15 07:25:15;;;;;;;5.53;4.43;;;;;;;19.34;60.77;102060.97;5251797;28;20111;-68
2021/06/15 07:27:47;;;;;;;8.00;3.87;;;;;;;19.35;59.59;102062.63;5251816;28;20037;-68
2021/06/15 07:30:19;;;;;;;8.03;4.57;;;;;;;19.40;60.73;102058.50;5250457;28;20379;-68
2021/06/15 07:32:51;;;;;;;8.00;4.60;;;;;;;19.53;60.90;102052.75;5246242;28;20035;-68
2021/06/15 07:35:26;;;;;;;5.90;3.70;;;;;;;19.55;60.75;102063.25;5253325;28;20036;-68
2021/06/15 07:37:57;;;;;;;9.70;4.32;;;;;;;19.52;60.34;102071.53;5254430;28;20045;-68
2021/06/15 07:40:28;;;;;;;11.77;4.50;;;;;;;19.66;60.29;102062.97;5253023;28;20032;-68
2021/06/15 07:43:00;;;;;;;6.87;4.17;;;;;;;19.58;60.22;102073.53;5256022;28;20028;-68
2021/06/15 07:45:35;;;;;;;7.40;3.80;;;;;;;19.75;60.25;102072.66;5254212;28;20449;-68
2021/06/15 07:48:07;;;;;;;7.40;4.05;;;;;;;19.66;60.49;102063.81;5251686;28;20390;-68
2021/06/15 07:50:38;;;;;;;6.43;3.63;;;;;;;19.73;60.03;102073.78;5255806;28;20035;-68
2021/06/15 07:53:09;;;;;;;7.67;4.37;;;;;;;19.81;59.21;102073.81;5255806;28;20387;-68
2021/06/15 07:55:42;;;;;;;5.70;3.87;;;;;;;19.93;59.41;102070.72;5256556;28;20028;-68
2021/06/15 07:58:13;;;;;;;7.60;3.92;;;;;;;19.98;59.71;102062.25;5254175;28;20025;-69
2021/06/15 08:00:44;;;;;;;8.27;4.60;;;;;;;20.05;58.35;102057.94;5250738;28;20033;-68
2021/06/15 08:03:16;;;;;;;5.40;3.63;;;;;;;20.12;57.58;102069.59;5249594;28;20036;-70
2021/06/15 08:05:47;;;;;;;6.40;3.80;;;;;;;20.16;57.71;102067.47;5252738;28;20562;-67
2021/06/15 08:08:18;;;;;;;4.80;3.93;;;;;;;20.38;57.97;102063.31;5251479;28;20036;-67
2021/06/15 08:10:50;;;;;;;6.47;3.90;;;;;;;20.35;56.96;102059.16;5254677;28;20120;-67
2021/06/15 08:13:21;;;;;;;7.27;3.83;;;;;;;20.50;56.94;102070.03;5251295;28;20033;-67
2021/06/15 08:15:52;;;;;;;6.67;3.53;;;;;;;20.47;55.65;102058.84;5244893;28;20112;-67
2021/06/15 08:18:24;;;;;;;7.07;3.47;;;;;;;20.54;56.72;102071.34;5250254;28;20016;-68
2021/06/15 08:20:56;;;;;;;5.53;3.37;;;;;;;20.62;55.77;102059.88;5252839;28;20497;-66
2021/06/15 08:23:28;;;;;;;6.30;3.53;;;;;;;20.78;54.32;102062.53;5252272;28;20557;-67
2021/06/15 08:25:59;;;;;;;6.63;2.97;;;;;;;20.97;54.93;102065.84;5251024;28;20431;-67
2021/06/15 08:28:31;;;;;;;4.03;3.13;;;;;;;21.01;54.67;102060.00;5251368;28;20037;-68
2021/06/15 08:31:02;;;;;;;9.17;3.33;;;;;;;21.19;53.36;102069.63;5248507;28;20029;-68
2021/06/15 08:33:33;;;;;;;4.57;3.07;;;;;;;21.28;54.03;102068.59;5243774;28;20501;-68
2021/06/15 08:36:06;;;;;;;6.00;2.83;;;;;;;21.53;52.74;102070.22;5244372;28;20033;-69
2021/06/15 08:38:37;;;;;;;7.75;3.17;;;;;;;21.62;51.13;102060.34;5245763;28;20067;-68
2021/06/15 08:41:08;;;;;;;5.63;2.80;;;;;;;21.54;50.43;102063.88;5249684;28;20021;-68
2021/06/15 08:43:40;;;;;;;5.23;2.70;;;;;;;21.69;49.50;102061.31;5252835;28;20414;-68
2021/06/15 08:46:12;;;;;;;5.40;2.77;;;;;;;21.70;49.74;102057.63;5248510;28;20032;-67
2021/06/15 08:48:43;;;;;;;6.07;2.85;;;;;;;21.99;50.00;102051.66;5247779;28;20402;-67
2021/06/15 08:51:15;;;;;;;8.83;3.67;;;;;;;22.08;50.65;102055.94;5248817;28;20021;-67
2021/06/15 08:53:51;;;;;;;12.17;3.40;;;;;;;22.26;50.26;102058.34;5253641;28;20029;-66
2021/06/15 08:56:30;;;;;;;4.70;2.50;;;;;;;22.16;49.68;102060.44;5253703;28;20116;-68
2021/06/15 08:59:14;;;;;;;8.27;2.75;;;;;;;22.22;51.00;102050.88;5250996;28;20132;-67
2021/06/15 09:01:48;;;;;;;6.30;2.78;;;;;;;22.01;50.64;102046.13;5250326;28;20039;-67
2021/06/15 09:04:20;;;;;;;6.68;3.00;;;;;;;22.16;50.50;102044.44;5252317;28;20433;-67
2021/06/15 09:06:56;;;;;;;4.93;2.43;;;;;;;22.18;51.39;102045.06;5267531;28;20032;-68
2021/06/15 09:09:36;;;;;;;3.85;2.60;;;;;;;22.40;51.24;102059.44;5249861;28;20028;-67
2021/06/15 09:12:10;;;;;;;7.75;2.80;;;;;;;22.16;50.68;102056.91;5249151;28;20029;-68
2021/06/15 09:14:52;;;;;;;5.43;2.83;;;;;;;22.13;51.67;102057.25;5250433;28;20059;-67
2021/06/15 09:17:29;;;;;;;7.17;2.50;;;;;;;22.04;50.53;102059.97;5237188;28;20123;-67
2021/06/15 09:20:31;;;;;;;7.10;2.95;;;;;;;22.21;50.59;102060.72;5250490;28;20583;-67
2021/06/15 09:23:09;;;;;;;8.10;2.70;;;;;;;22.10;49.49;102064.59;5243973;28;20025;-68
2021/06/15 09:25:48;;;;;;;5.43;2.47;;;;;;;21.94;50.37;102059.38;5249876;28;20052;-67
2021/06/15 09:28:22;;;;;;;3.80;2.00;;;;;;;22.02;49.49;102066.50;5248229;28;20033;-68
2021/06/15 09:30:56;;;;;;;3.33;2.10;;;;;;;22.04;49.36;102059.97;5248228;28;20868;-68
2021/06/15 09:33:42;;;;;;;7.13;2.72;;;;;;;22.26;49.22;102053.00;5246040;28;20390;-68
2021/06/15 09:36:13;;;;;;;3.85;2.17;;;;;;;22.24;48.97;102057.72;5247959;28;20384;-69
2021/06/15 09:39:01;;;;;;;6.73;2.53;;;;;;;22.25;48.92;102050.53;5246638;28;20471;-68
2021/06/15 09:41:38;;;;;;;6.65;2.35;;;;;;;22.27;48.20;102061.84;5250487;28;20024;-68
2021/06/15 09:44:29;;;;;;;4.80;2.00;;;;;;;22.28;48.78;102055.53;5249518;28;20052;-68
2021/06/15 09:47:04;;;;;;;3.65;1.88;;;;;;;22.24;49.04;102051.53;5247065;28;20129;-68
2021/06/15 09:49:38;;;;;;;5.57;1.70;;;;;;;22.36;47.35;102055.47;5251432;28;20033;-67
2021/06/15 09:52:20;;;;;;;5.15;1.88;;;;;;;22.49;46.83;102058.34;5245543;28;20026;-67
2021/06/15 09:54:52;;;;;;;9.73;2.10;;;;;;;22.65;46.46;102051.19;5243603;28;20496;-68
2021/06/15 09:57:26;;;;;;;4.33;1.70;;;;;;;22.63;45.49;102051.41;5249258;28;20039;-68
2021/06/15 10:00:08;;;;;;;4.47;1.67;;;;;;;22.67;45.95;102046.53;5246591;28;20559;-68
2021/06/15 10:02:58;;;;;;;3.28;1.52;;;;;;;22.67;45.85;102039.34;5247881;28;20073;-68
2021/06/15 10:05:37;;;;;;;4.63;1.65;;;;;;;23.05;46.45;102050.84;5250264;28;20029;-68
2021/06/15 10:08:11;;;;;;;3.42;1.30;;;;;;;23.22;43.47;102056.88;5252284;28;20021;-68
2021/06/15 10:10:44;;;;;;;2.80;1.00;;;;;;;23.54;44.82;102049.47;5244741;28;20497;-68
2021/06/15 10:13:16;;;;;;;3.90;1.20;;;;;;;23.66;42.15;102036.44;5244920;28;20045;-68
2021/06/15 10:15:47;;;;;;;5.33;2.00;;;;;;;23.61;43.16;102039.69;5252645;28;20119;-68
2021/06/15 10:18:19;;;;;;;3.80;1.40;;;;;;;23.64;42.91;102050.00;5249799;28;20101;-68
2021/06/15 10:20:51;;;;;;;4.20;1.40;;;;;;;23.96;42.31;102053.28;5249210;28;20522;-69
2021/06/15 10:23:22;;;;;;;3.85;1.80;;;;;;;23.92;41.18;102046.66;5246397;28;20036;-67
2021/06/15 10:25:53;;;;;;;2.37;1.23;;;;;;;24.25;42.02;102047.00;5244121;28;20029;-67
2021/06/15 10:28:29;;;;;;;3.87;1.40;;;;;;;24.16;41.36;102043.59;5248038;28;20032;-67
2021/06/15 10:31:02;;;;;;;5.13;1.42;;;;;;;24.26;42.46;102044.13;5245219;28;20025;-68
2021/06/15 10:33:49;;;;;;;4.63;1.50;;;;;;;24.47;42.28;102037.97;5244129;28;20558;-67
2021/06/15 10:36:41;;;;;;;4.85;1.20;;;;;;;24.40;41.99;102036.25;5249022;28;20115;-68
2021/06/15 10:39:38;;;;;;;5.00;1.40;;;;;;;24.59;41.99;102029.41;5252277;28;20482;-67
2021/06/15 10:42:16;;;;;;;7.07;1.35;;;;;;;24.40;40.02;102028.22;5247876;28;20161;-69
2021/06/15 10:45:16;;;;;;;3.30;1.23;;;;;;;24.72;39.85;102016.91;5241890;28;20074;-67
2021/06/15 10:48:05;;;;;;;3.00;1.25;;;;;;;24.80;39.27;102023.16;5244741;28;20036;-68
2021/06/15 10:50:53;;;;;;;5.35;1.20;;;;;;;25.17;37.65;102019.28;5247115;28;20029;-67
2021/06/15 10:53:40;;;;;;;2.90;1.20;;;;;;;25.30;37.56;102021.19;5247479;28;20051;-67
2021/06/15 10:56:14;;;;;;;3.05;0.80;;;;;;;25.08;38.62;102015.06;5243044;28;20018;-68
2021/06/15 10:59:04;;;;;;;3.50;1.30;;;;;;;25.21;38.37;102015.19;5241161;28;20113;-68
2021/06/15 11:01:38;;;;;;;4.50;1.30;;;;;;;24.89;37.16;102011.25;5244370;28;20033;-68
2021/06/15 11:04:14;;;;;;;4.45;1.33;;;;;;;24.96;38.83;102018.31;5242607;28;20036;-68
2021/06/15 11:06:49;;;;;;;2.63;1.05;;;;;;;25.14;37.30;102017.00;5247891;28;20120;-68
2021/06/15 11:09:26;;;;;;;3.67;1.25;;;;;;;25.00;38.32;102011.53;5248382;28;20166;-68
2021/06/15 11:12:04;;;;;;;2.88;1.05;;;;;;;24.99;38.30;102011.72;5249949;28;20475;-68
2021/06/15 11:14:37;;;;;;;3.63;1.30;;;;;;;25.14;38.90;102012.47;5250992;28;20024;-68
2021/06/15 11:17:08;;;;;;;3.30;1.30;;;;;;;25.28;38.82;102010.69;5244968;28;20044;-68
2021/06/15 11:19:40;;;;;;;3.70;1.93;;;;;;;25.73;37.19;102008.38;5242531;28;20049;-68
2021/06/15 11:22:19;;;;;;;4.93;1.98;;;;;;;25.48;38.69;102010.75;5250158;28;20025;-69
2021/06/15 11:24:51;;;;;;;4.05;1.88;;;;;;;25.63;38.40;102008.75;5249580;28;20086;-68
2021/06/15 11:27:24;;;;;;;4.55;1.80;;;;;;;25.60;37.29;102002.94;5251970;28;20037;-69
2021/06/15 11:30:22;;;;;;;5.47;2.58;;;;;;;25.64;38.91;102005.03;5253678;28;20453;-66
2021/06/15 11:33:00;;;;;;;8.10;2.13;;;;;;;25.51;38.87;102001.50;5245157;28;20546;-70
2021/06/15 11:35:40;;;;;;;6.15;2.15;;;;;;;25.73;38.83;102008.38;5253668;28;20115;-69
2021/06/15 11:38:16;;;;;;;5.72;1.85;;;;;;;25.87;40.01;102006.56;5252681;28;20025;-69
2021/06/15 11:40:48;;;;;;;6.32;2.50;;;;;;;25.85;38.96;102014.00;5250980;28;20028;-70
2021/06/15 11:43:21;;;;;;;4.07;2.13;;;;;;;25.83;38.83;102010.69;5252679;28;20029;-69
2021/06/15 11:45:53;;;;;;;6.78;2.38;;;;;;;26.06;38.68;102010.31;5249025;28;20025;-70
2021/06/15 11:48:36;;;;;;;4.25;2.17;;;;;;;26.22;38.78;102006.44;5250027;28;20035;-70
2021/06/15 11:51:10;;;;;;;4.82;2.20;;;;;;;26.19;38.74;102002.28;5252576;28;20025;-68
2021/06/15 11:53:41;;;;;;;4.25;1.83;;;;;;;26.06;39.34;102004.94;5251339;28;20414;-70
2021/06/15 11:56:14;;;;;;;3.20;1.93;;;;;;;26.22;38.98;102007.25;5251775;28;20043;-71
2021/06/15 11:58:47;;;;;;;;;;;;;;;26.71;38.83;102006.03;5243964;28;20401;-70